createdAt,value
2023-05-19T00:00:19.685Z,53.11
2023-05-19T00:01:19.719Z,53.24
2023-05-19T00:02:19.765Z,53.47
2023-05-19T00:03:19.960Z,53.04
2023-05-19T00:04:19.827Z,53.28
2023-05-19T00:05:19.974Z,53.21
2023-05-19T00:06:20.023Z,53.15
2023-05-19T00:07:19.970Z,53.10
2023-05-19T00:08:20.051Z,53.18
2023-05-19T00:09:20.061Z,53.03
2023-05-19T00:10:20.171Z,52.97
2023-05-19T00:11:20.143Z,53.06
2023-05-19T00:12:20.214Z,53.21
2023-05-19T00:13:20.204Z,53.37
2023-05-19T00:14:20.207Z,53.45
2023-05-19T00:15:20.201Z,53.60
2023-05-19T00:16:20.290Z,53.70
2023-05-19T00:17:20.257Z,53.41
2023-05-19T00:18:20.317Z,53.23
2023-05-19T00:19:20.402Z,53.49
2023-05-19T00:20:20.356Z,53.73
2023-05-19T00:21:20.293Z,53.88
2023-05-19T00:22:20.292Z,54.36
2023-05-19T00:23:20.335Z,54.94
2023-05-19T00:24:20.328Z,55.04
2023-05-19T00:25:20.331Z,54.76
2023-05-19T00:26:20.302Z,54.56
2023-05-19T00:27:20.337Z,54.70
2023-05-19T00:28:20.379Z,54.87
2023-05-19T00:29:20.459Z,55.07
2023-05-19T00:30:20.424Z,55.00
2023-05-19T00:31:20.456Z,55.19
2023-05-19T00:32:20.425Z,55.34
2023-05-19T00:33:20.425Z,55.54
2023-05-19T00:34:20.402Z,55.48
2023-05-19T00:35:20.377Z,55.81
2023-05-19T00:36:20.382Z,56.04
2023-05-19T00:37:20.349Z,56.21
2023-05-19T00:38:20.381Z,55.94
2023-05-19T00:39:20.392Z,55.61
2023-05-19T00:40:20.389Z,55.89
2023-05-19T00:41:20.343Z,56.11
2023-05-19T00:42:20.327Z,56.58
2023-05-19T00:43:20.343Z,57.03
2023-05-19T00:44:20.382Z,57.59
2023-05-19T00:45:20.338Z,57.99
2023-05-19T00:46:20.415Z,58.06
2023-05-19T00:47:20.297Z,58.17
2023-05-19T00:48:20.300Z,58.55
2023-05-19T00:49:20.283Z,58.65
2023-05-19T00:50:20.292Z,58.86
2023-05-19T00:51:20.266Z,58.76
2023-05-19T00:52:20.260Z,58.45
2023-05-19T00:53:20.248Z,58.37
2023-05-19T00:54:20.209Z,58.39
2023-05-19T00:55:20.324Z,57.78
2023-05-19T00:56:20.213Z,57.34
2023-05-19T00:57:20.243Z,56.98
2023-05-19T00:58:20.223Z,56.82
2023-05-19T00:59:20.211Z,57.15
2023-05-19T01:00:20.208Z,57.59
2023-05-19T01:01:20.249Z,57.96
2023-05-19T01:02:20.239Z,57.90
2023-05-19T01:03:20.358Z,57.63
2023-05-19T01:04:20.159Z,57.43
2023-05-19T01:05:20.186Z,57.65
2023-05-19T01:06:20.213Z,57.51
2023-05-19T01:07:20.244Z,57.69
2023-05-19T01:08:20.321Z,57.76
2023-05-19T01:09:20.312Z,57.77
2023-05-19T01:10:20.413Z,58.11
2023-05-19T01:11:20.405Z,58.31
2023-05-19T01:12:20.464Z,58.17
2023-05-19T01:13:20.512Z,57.92
2023-05-19T01:14:20.550Z,57.76
2023-05-19T01:15:20.585Z,57.73
2023-05-19T01:16:20.675Z,57.98
2023-05-19T01:17:20.675Z,58.15
2023-05-19T01:18:20.670Z,58.06
2023-05-19T01:19:20.857Z,58.10
2023-05-19T01:20:20.656Z,58.10
2023-05-19T01:21:20.683Z,58.22
2023-05-19T01:22:20.698Z,58.05
2023-05-19T01:23:20.689Z,58.20
2023-05-19T01:24:20.657Z,58.16
2023-05-19T01:25:20.708Z,58.41
2023-05-19T01:26:20.692Z,58.52
2023-05-19T01:27:20.621Z,57.97
2023-05-19T01:28:20.649Z,58.09
2023-05-19T01:29:20.603Z,58.33
2023-05-19T01:30:20.649Z,58.33
2023-05-19T01:31:20.640Z,58.20
2023-05-19T01:32:20.688Z,58.29
2023-05-19T01:33:20.599Z,57.91
2023-05-19T01:34:20.606Z,57.58
2023-05-19T01:35:20.580Z,57.58
2023-05-19T01:36:20.627Z,57.56
2023-05-19T01:37:20.570Z,57.49
2023-05-19T01:38:20.535Z,57.68
2023-05-19T01:39:20.553Z,57.97
2023-05-19T01:40:20.628Z,57.92
2023-05-19T01:41:20.560Z,57.67
2023-05-19T01:42:20.545Z,58.11
2023-05-19T01:43:20.569Z,58.53
2023-05-19T01:44:20.543Z,58.34
2023-05-19T01:45:20.555Z,58.15
2023-05-19T01:46:20.505Z,58.28
2023-05-19T01:47:20.485Z,58.20
2023-05-19T01:48:20.543Z,58.35
2023-05-19T01:49:20.517Z,58.28
2023-05-19T01:50:20.511Z,58.01
2023-05-19T01:51:20.530Z,57.54
2023-05-19T01:52:20.456Z,57.62
2023-05-19T01:53:20.461Z,57.72
2023-05-19T01:54:20.433Z,57.60
2023-05-19T01:55:20.501Z,57.40
2023-05-19T01:56:20.469Z,56.98
2023-05-19T01:57:20.451Z,56.68
2023-05-19T01:58:20.442Z,56.91
2023-05-19T01:59:20.409Z,56.60
2023-05-19T02:00:21.327Z,56.76
2023-05-19T02:01:20.439Z,57.09
2023-05-19T02:02:20.449Z,56.67
2023-05-19T02:03:20.403Z,56.44
2023-05-19T02:04:20.443Z,56.28
2023-05-19T02:05:20.360Z,56.06
2023-05-19T02:06:20.424Z,56.10
2023-05-19T02:07:20.406Z,56.38
2023-05-19T02:08:20.421Z,56.82
2023-05-19T02:09:20.457Z,57.08
2023-05-19T02:10:20.487Z,56.90
2023-05-19T02:11:20.504Z,57.23
2023-05-19T02:12:20.539Z,57.42
2023-05-19T02:13:20.552Z,57.71
2023-05-19T02:14:20.615Z,57.97
2023-05-19T02:15:20.681Z,58.17
2023-05-19T02:16:20.867Z,58.51
2023-05-19T02:17:20.745Z,58.48
2023-05-19T02:18:20.801Z,58.41
2023-05-19T02:19:21.009Z,57.91
2023-05-19T02:20:20.877Z,57.52
2023-05-19T02:21:20.898Z,57.29
2023-05-19T02:22:20.874Z,57.24
2023-05-19T02:23:20.911Z,57.12
2023-05-19T02:24:20.925Z,57.12
2023-05-19T02:25:20.951Z,57.81
2023-05-19T02:26:20.957Z,58.19
2023-05-19T02:27:20.951Z,58.28
2023-05-19T02:28:21.002Z,58.75
2023-05-19T02:29:21.080Z,58.93
2023-05-19T02:30:21.083Z,58.46
2023-05-19T02:31:21.164Z,57.87
2023-05-19T02:32:21.142Z,57.43
2023-05-19T02:33:21.133Z,57.07
2023-05-19T02:34:21.192Z,56.84
2023-05-19T02:35:21.179Z,56.57
2023-05-19T02:36:21.206Z,56.37
2023-05-19T02:37:21.194Z,56.86
2023-05-19T02:38:21.169Z,57.60
2023-05-19T02:39:21.198Z,57.63
2023-05-19T02:40:21.188Z,57.30
2023-05-19T02:41:21.146Z,56.91
2023-05-19T02:42:21.155Z,56.94
2023-05-19T02:43:21.165Z,57.32
2023-05-19T02:44:21.116Z,58.02
2023-05-19T02:45:21.206Z,58.53
2023-05-19T02:46:21.150Z,58.88
2023-05-19T02:47:21.248Z,59.05
2023-05-19T02:48:21.213Z,59.44
2023-05-19T02:49:21.256Z,59.74
2023-05-19T02:50:21.223Z,59.47
2023-05-19T02:51:21.285Z,59.22
2023-05-19T02:52:21.237Z,58.62
2023-05-19T02:53:21.227Z,57.97
2023-05-19T02:54:21.231Z,57.94
2023-05-19T02:55:21.234Z,57.85
2023-05-19T02:56:21.213Z,57.65
2023-05-19T02:57:21.250Z,57.06
2023-05-19T02:58:21.180Z,56.59
2023-05-19T02:59:21.176Z,56.13
2023-05-19T03:00:21.234Z,56.00
2023-05-19T03:01:21.351Z,55.93
2023-05-19T03:02:21.298Z,55.81
2023-05-19T03:03:21.363Z,55.72
2023-05-19T03:04:21.312Z,55.79
2023-05-19T03:05:21.745Z,55.69
2023-05-19T03:06:21.424Z,55.61
2023-05-19T03:07:21.496Z,56.03
2023-05-19T03:08:21.599Z,56.47
2023-05-19T03:09:21.618Z,56.35
2023-05-19T03:10:21.670Z,56.77
2023-05-19T03:11:21.680Z,56.81
2023-05-19T03:12:21.847Z,56.47
2023-05-19T03:13:21.808Z,56.20
2023-05-19T03:14:21.863Z,56.00
2023-05-19T03:15:21.859Z,55.72
2023-05-19T03:16:22.782Z,55.79
2023-05-19T03:17:22.047Z,56.06
2023-05-19T03:18:21.985Z,55.80
2023-05-19T03:19:22.131Z,55.72
2023-05-19T03:20:22.044Z,55.33
2023-05-19T03:21:22.083Z,55.24
2023-05-19T03:22:22.162Z,55.21
2023-05-19T03:23:22.198Z,55.17
2023-05-19T03:24:22.229Z,55.03
2023-05-19T03:25:22.297Z,55.15
2023-05-19T03:26:22.294Z,55.18
2023-05-19T03:27:22.387Z,55.16
2023-05-19T03:28:22.410Z,55.02
2023-05-19T03:29:22.389Z,54.81
2023-05-19T03:30:22.508Z,54.72
2023-05-19T03:31:22.380Z,55.53
2023-05-19T03:32:22.454Z,56.25
2023-05-19T03:33:22.612Z,57.04
2023-05-19T03:34:22.410Z,57.89
2023-05-19T03:35:22.453Z,58.40
2023-05-19T03:36:22.448Z,58.22
2023-05-19T03:37:22.457Z,58.02
2023-05-19T03:38:22.534Z,58.09
2023-05-19T03:39:22.558Z,58.51
2023-05-19T03:40:22.593Z,58.57
2023-05-19T03:41:22.653Z,58.50
2023-05-19T03:42:22.677Z,58.61
2023-05-19T03:43:22.695Z,58.75
2023-05-19T03:44:22.753Z,59.09
2023-05-19T03:45:22.722Z,59.39
2023-05-19T03:46:22.846Z,59.65
2023-05-19T03:47:22.767Z,59.88
2023-05-19T03:48:22.752Z,60.06
2023-05-19T03:49:22.771Z,60.01
2023-05-19T03:50:22.777Z,59.62
2023-05-19T03:51:22.835Z,58.98
2023-05-19T03:52:22.881Z,58.70
2023-05-19T03:53:22.974Z,58.39
2023-05-19T03:54:23.027Z,57.91
2023-05-19T03:55:23.095Z,57.33
2023-05-19T03:56:23.038Z,56.91
2023-05-19T03:57:23.090Z,56.52
2023-05-19T03:58:23.100Z,56.23
2023-05-19T03:59:23.095Z,57.08
2023-05-19T04:00:23.124Z,57.51
2023-05-19T04:01:23.106Z,57.65
2023-05-19T04:02:23.216Z,57.77
2023-05-19T04:03:23.268Z,58.06
2023-05-19T04:04:23.247Z,57.74
2023-05-19T04:05:23.286Z,57.94
2023-05-19T04:06:23.300Z,58.47
2023-05-19T04:07:23.395Z,59.04
2023-05-19T04:08:23.437Z,58.85
2023-05-19T04:09:23.506Z,59.22
2023-05-19T04:10:23.571Z,59.13
2023-05-19T04:11:23.598Z,58.71
2023-05-19T04:12:23.662Z,58.82
2023-05-19T04:13:23.742Z,58.88
2023-05-19T04:14:23.806Z,59.30
2023-05-19T04:15:23.850Z,59.59
2023-05-19T04:16:24.051Z,59.47
2023-05-19T04:17:23.982Z,59.26
2023-05-19T04:18:24.474Z,59.54
2023-05-19T04:19:24.174Z,59.84
2023-05-19T04:20:24.189Z,59.50
2023-05-19T04:21:24.227Z,58.73
2023-05-19T04:22:24.267Z,57.96
2023-05-19T04:23:24.307Z,57.44
2023-05-19T04:24:24.375Z,56.99
2023-05-19T04:25:24.438Z,56.43
2023-05-19T04:26:25.256Z,56.25
2023-05-19T04:27:24.494Z,56.24
2023-05-19T04:28:24.518Z,56.04
2023-05-19T04:29:24.529Z,55.84
2023-05-19T04:30:24.546Z,55.59
2023-05-19T04:31:25.278Z,55.56
2023-05-19T04:32:24.593Z,55.62
2023-05-19T04:33:24.599Z,55.70
2023-05-19T04:34:24.580Z,54.94
2023-05-19T04:35:24.634Z,54.88
2023-05-19T04:36:24.663Z,54.77
2023-05-19T04:37:24.662Z,54.45
2023-05-19T04:38:24.712Z,54.29
2023-05-19T04:39:24.733Z,54.49
2023-05-19T04:40:24.743Z,54.36
2023-05-19T04:41:24.780Z,54.13
2023-05-19T04:42:24.842Z,53.95
2023-05-19T04:43:24.794Z,53.93
2023-05-19T04:44:24.792Z,53.83
2023-05-19T04:45:24.814Z,53.82
2023-05-19T04:46:24.860Z,53.61
2023-05-19T04:47:24.866Z,53.43
2023-05-19T04:48:24.847Z,53.42
2023-05-19T04:49:24.862Z,53.32
2023-05-19T04:50:24.924Z,53.47
2023-05-19T04:51:24.933Z,53.32
2023-05-19T04:52:24.964Z,53.28
2023-05-19T04:53:24.948Z,53.63
2023-05-19T04:54:25.004Z,53.88
2023-05-19T04:55:25.130Z,53.67
2023-05-19T04:56:25.080Z,54.16
2023-05-19T04:57:25.076Z,54.59
2023-05-19T04:58:25.091Z,54.40
2023-05-19T04:59:25.132Z,54.24
2023-05-19T05:01:52.915Z,54.25
2023-05-19T05:02:45.179Z,53.94
2023-05-19T05:03:45.263Z,53.78
2023-05-19T05:04:45.152Z,53.75
2023-05-19T05:05:45.168Z,53.60
2023-05-19T05:06:45.119Z,53.64
2023-05-19T05:07:45.104Z,53.92
2023-05-19T05:08:45.160Z,54.57
2023-05-19T05:09:45.165Z,54.29
2023-05-19T05:10:45.141Z,53.93
2023-05-19T05:11:45.246Z,53.69
2023-05-19T05:12:45.112Z,53.94
2023-05-19T05:13:45.102Z,54.27
2023-05-19T05:14:45.121Z,53.97
2023-05-19T05:15:45.142Z,54.39
2023-05-19T05:16:45.212Z,54.34
2023-05-19T05:17:45.141Z,54.10
2023-05-19T05:18:45.218Z,53.99
2023-05-19T05:19:45.034Z,54.25
2023-05-19T05:20:45.038Z,54.30
2023-05-19T05:21:45.082Z,54.48
2023-05-19T05:22:45.094Z,54.83
2023-05-19T05:23:45.122Z,54.75
2023-05-19T05:24:45.161Z,54.27
2023-05-19T05:25:45.241Z,54.14
2023-05-19T05:26:45.291Z,53.90
2023-05-19T05:27:45.321Z,53.94
2023-05-19T05:28:45.412Z,53.85
2023-05-19T05:29:45.452Z,53.65
2023-05-19T05:30:45.433Z,53.51
2023-05-19T05:31:45.470Z,53.31
2023-05-19T05:32:45.587Z,53.24
2023-05-19T05:33:45.587Z,53.00
2023-05-19T05:34:45.507Z,53.29
2023-05-19T05:35:45.555Z,53.57
2023-05-19T05:36:45.596Z,53.46
2023-05-19T05:37:45.709Z,53.36
2023-05-19T05:38:45.708Z,53.54
2023-05-19T05:39:45.782Z,53.39
2023-05-19T05:40:45.789Z,53.12
2023-05-19T05:41:45.843Z,53.08
2023-05-19T05:42:45.848Z,52.80
2023-05-19T05:43:45.855Z,52.72
2023-05-19T05:44:45.874Z,53.33
2023-05-19T05:45:46.025Z,53.59
2023-05-19T05:46:54.766Z,53.45
2023-05-19T05:47:46.381Z,53.19
2023-05-19T05:48:46.110Z,52.84
2023-05-19T05:49:46.054Z,52.84
2023-05-19T05:50:46.063Z,52.77
2023-05-19T05:51:58.001Z,52.87
2023-05-19T05:52:46.072Z,52.93
2023-05-19T05:53:46.075Z,52.93
2023-05-19T05:54:45.988Z,52.79
2023-05-19T05:55:46.013Z,52.47
2023-05-19T05:56:46.026Z,52.07
2023-05-19T05:57:46.028Z,52.70
2023-05-19T05:58:46.109Z,53.02
2023-05-19T05:59:45.953Z,53.06
2023-05-19T06:00:45.956Z,53.36
2023-05-19T06:01:46.035Z,52.88
2023-05-19T06:02:46.057Z,52.92
2023-05-19T06:03:46.081Z,52.69
2023-05-19T06:04:46.076Z,52.46
2023-05-19T06:05:46.907Z,53.28
2023-05-19T06:06:46.079Z,53.88
2023-05-19T06:07:45.976Z,54.30
2023-05-19T06:08:45.943Z,54.33
2023-05-19T06:09:45.972Z,54.60
2023-05-19T06:10:47.338Z,54.47
2023-05-19T06:11:46.008Z,54.08
2023-05-19T06:12:45.890Z,53.54
2023-05-19T06:13:46.034Z,52.87
2023-05-19T06:14:46.048Z,52.52
2023-05-19T06:15:46.061Z,52.36
2023-05-19T06:16:46.018Z,52.08
2023-05-19T06:17:45.984Z,51.68
2023-05-19T06:18:46.604Z,51.31
2023-05-19T06:19:45.914Z,51.52
2023-05-19T06:20:45.854Z,51.33
2023-05-19T06:21:45.884Z,51.78
2023-05-19T06:22:45.988Z,51.37
2023-05-19T06:23:45.803Z,51.03
2023-05-19T06:24:45.932Z,50.76
2023-05-19T06:25:45.891Z,50.75
2023-05-19T06:26:46.435Z,51.21
2023-05-19T06:27:46.075Z,51.12
2023-05-19T06:28:46.133Z,51.85
2023-05-19T06:29:46.109Z,52.41
2023-05-19T06:30:46.239Z,52.94
2023-05-19T06:31:46.548Z,54.03
2023-05-19T06:32:46.344Z,54.45
2023-05-19T06:33:48.281Z,54.60
2023-05-19T06:34:46.501Z,54.42
2023-05-19T06:35:46.505Z,54.29
2023-05-19T06:36:46.610Z,53.45
2023-05-19T06:37:46.610Z,53.04
2023-05-19T06:38:46.625Z,52.48
2023-05-19T06:39:46.622Z,51.77
2023-05-19T06:40:47.585Z,51.31
2023-05-19T06:41:46.558Z,50.87
2023-05-19T06:42:46.570Z,50.48
2023-05-19T06:43:46.587Z,50.26
2023-05-19T06:44:46.562Z,50.21
2023-05-19T06:45:46.592Z,50.04
2023-05-19T06:46:46.611Z,49.80
2023-05-19T06:47:47.468Z,49.46
2023-05-19T06:48:46.652Z,50.52
2023-05-19T06:49:46.582Z,50.57
2023-05-19T06:50:47.405Z,50.26
2023-05-19T06:51:48.125Z,48.93
2023-05-19T06:52:46.474Z,49.41
2023-05-19T06:53:46.488Z,49.45
2023-05-19T06:54:46.425Z,49.24
2023-05-19T06:55:58.112Z,48.93
2023-05-19T06:56:49.105Z,49.16
2023-05-19T06:57:47.882Z,48.83
2023-05-19T06:58:46.580Z,49.30
2023-05-19T06:59:46.551Z,49.38
2023-05-19T07:00:46.357Z,48.70
2023-05-19T07:01:46.466Z,48.14
2023-05-19T07:02:46.583Z,48.66
2023-05-19T07:03:46.544Z,48.63
2023-05-19T07:04:46.482Z,48.76
2023-05-19T07:05:46.488Z,48.98
2023-05-19T07:06:46.422Z,48.89
2023-05-19T07:07:46.487Z,48.53
2023-05-19T07:08:46.302Z,48.82
2023-05-19T07:09:46.417Z,48.17
2023-05-19T07:10:46.423Z,47.82
2023-05-19T07:11:46.404Z,48.73
2023-05-19T07:12:46.427Z,49.16
2023-05-19T07:13:46.423Z,48.34
2023-05-19T07:14:46.344Z,49.38
2023-05-19T07:15:46.262Z,49.64
2023-05-19T07:16:46.661Z,49.65
2023-05-19T07:17:46.423Z,48.80
2023-05-19T07:18:46.299Z,48.32
2023-05-19T07:19:46.256Z,48.03
2023-05-19T07:20:46.270Z,47.79
2023-05-19T07:21:46.877Z,47.66
2023-05-19T07:22:46.533Z,47.67
2023-05-19T07:23:46.410Z,47.52
2023-05-19T07:24:46.403Z,47.25
2023-05-19T07:25:46.427Z,46.99
2023-05-19T07:26:46.427Z,46.74
2023-05-19T07:27:46.494Z,45.96
2023-05-19T07:28:46.421Z,47.12
2023-05-19T07:29:46.343Z,47.81
2023-05-19T07:30:46.391Z,46.39
2023-05-19T07:31:46.382Z,46.43
2023-05-19T07:32:46.396Z,46.03
2023-05-19T07:33:46.392Z,46.65
2023-05-19T07:34:46.469Z,46.46
2023-05-19T07:35:46.361Z,46.25
2023-05-19T07:36:46.376Z,46.15
2023-05-19T07:37:46.319Z,46.06
2023-05-19T07:38:46.393Z,46.63
2023-05-19T07:39:46.380Z,47.47
2023-05-19T07:40:46.348Z,46.56
2023-05-19T07:41:46.355Z,46.45
2023-05-19T07:42:46.354Z,47.43
2023-05-19T07:43:46.359Z,47.21
2023-05-19T07:44:46.356Z,46.85
2023-05-19T07:45:46.442Z,46.85
2023-05-19T07:46:46.380Z,46.73
2023-05-19T07:47:46.408Z,47.22
2023-05-19T07:48:46.331Z,47.51
2023-05-19T07:49:46.337Z,47.10
2023-05-19T07:50:46.363Z,47.05
2023-05-19T07:51:46.302Z,47.22
2023-05-19T07:52:46.933Z,47.74
2023-05-19T07:53:46.207Z,47.85
2023-05-19T07:54:46.217Z,47.35
2023-05-19T07:55:46.210Z,47.26
2023-05-19T07:56:46.239Z,47.19
2023-05-19T07:57:46.294Z,48.12
2023-05-19T07:58:46.240Z,47.95
2023-05-19T07:59:46.242Z,48.00
2023-05-19T08:00:46.341Z,48.39
2023-05-19T08:01:46.569Z,47.54
2023-05-19T08:02:46.237Z,47.05
2023-05-19T08:03:46.239Z,46.75
2023-05-19T08:04:46.289Z,46.57
2023-05-19T08:05:46.894Z,46.38
2023-05-19T08:06:46.260Z,47.54
2023-05-19T08:07:46.190Z,48.24
2023-05-19T08:08:46.204Z,48.98
2023-05-19T08:09:46.218Z,49.16
2023-05-19T08:10:46.919Z,48.89
2023-05-19T08:11:46.274Z,49.45
2023-05-19T08:12:46.131Z,48.98
2023-05-19T08:13:46.108Z,48.32
2023-05-19T08:14:46.155Z,47.92
2023-05-19T08:15:46.091Z,47.54
2023-05-19T08:16:46.134Z,47.99
2023-05-19T08:17:46.118Z,48.86
2023-05-19T08:18:46.176Z,49.39
2023-05-19T08:19:46.116Z,49.60
2023-05-19T08:20:46.266Z,48.82
2023-05-19T08:21:46.777Z,47.85
2023-05-19T08:22:46.095Z,47.62
2023-05-19T08:23:46.185Z,47.69
2023-05-19T08:24:46.119Z,46.86
2023-05-19T08:25:46.053Z,46.05
2023-05-19T08:26:46.185Z,45.67
2023-05-19T08:27:46.109Z,45.70
2023-05-19T08:28:46.096Z,45.11
2023-05-19T08:29:46.130Z,44.71
2023-05-19T08:30:46.050Z,44.50
2023-05-19T08:31:46.102Z,44.70
2023-05-19T08:32:46.031Z,44.47
2023-05-19T08:33:46.061Z,44.53
2023-05-19T08:34:46.059Z,44.09
2023-05-19T08:35:45.983Z,43.56
2023-05-19T08:36:46.079Z,44.44
2023-05-19T08:37:47.030Z,44.22
2023-05-19T08:38:45.921Z,43.94
2023-05-19T08:39:45.993Z,43.96
2023-05-19T08:40:45.937Z,43.79
2023-05-19T08:41:46.045Z,44.84
2023-05-19T08:42:45.953Z,43.24
2023-05-19T08:43:45.991Z,42.89
2023-05-19T08:44:45.973Z,42.92
2023-05-19T08:45:46.093Z,42.63
2023-05-19T08:46:46.036Z,42.50
2023-05-19T08:47:46.005Z,42.27
2023-05-19T08:48:45.867Z,42.33
2023-05-19T08:49:45.966Z,42.45
2023-05-19T08:50:45.849Z,41.85
2023-05-19T08:51:46.406Z,41.96
2023-05-19T08:52:48.872Z,41.79
2023-05-19T08:53:45.998Z,41.98
2023-05-19T08:54:45.896Z,43.11
2023-05-19T08:55:45.813Z,42.54
2023-05-19T08:56:46.012Z,42.33
2023-05-19T08:57:45.848Z,42.33
2023-05-19T08:58:45.855Z,42.65
2023-05-19T08:59:45.915Z,42.06
2023-05-19T09:00:45.879Z,42.39
2023-05-19T09:01:45.954Z,42.67
2023-05-19T09:02:55.146Z,42.84
2023-05-19T09:03:46.888Z,42.22
2023-05-19T09:04:45.803Z,42.44
2023-05-19T09:05:45.829Z,42.56
2023-05-19T09:06:45.993Z,42.53
2023-05-19T09:07:45.986Z,42.86
2023-05-19T09:08:45.880Z,42.73
2023-05-19T09:09:45.756Z,42.30
2023-05-19T09:10:46.289Z,41.97
2023-05-19T09:11:46.449Z,42.26
2023-05-19T09:12:46.008Z,42.11
2023-05-19T09:13:45.796Z,42.01
2023-05-19T09:14:45.754Z,41.59
2023-05-19T09:15:45.831Z,41.35
2023-05-19T09:16:45.890Z,41.86
2023-05-19T09:17:45.973Z,42.60
2023-05-19T09:18:46.022Z,42.07
2023-05-19T09:19:45.947Z,41.90
2023-05-19T09:20:46.005Z,41.52
2023-05-19T09:21:45.989Z,42.01
2023-05-19T09:22:45.990Z,42.97
2023-05-19T09:23:46.069Z,43.41
2023-05-19T09:24:46.097Z,43.40
2023-05-19T09:25:46.222Z,43.70
2023-05-19T09:26:46.228Z,44.28
2023-05-19T09:27:46.224Z,44.10
2023-05-19T09:28:46.318Z,44.14
2023-05-19T09:29:46.344Z,43.18
2023-05-19T09:30:46.398Z,42.80
2023-05-19T09:31:46.513Z,42.46
2023-05-19T09:32:47.567Z,42.04
2023-05-19T09:33:46.476Z,41.88
2023-05-19T09:34:46.486Z,41.57
2023-05-19T09:35:46.400Z,41.29
2023-05-19T09:36:46.388Z,41.62
2023-05-19T09:37:46.382Z,41.59
2023-05-19T09:38:46.393Z,41.49
2023-05-19T09:39:46.394Z,40.83
2023-05-19T09:40:46.395Z,40.63
2023-05-19T09:41:46.919Z,40.73
2023-05-19T09:42:46.327Z,41.30
2023-05-19T09:43:46.348Z,40.99
2023-05-19T09:44:46.415Z,40.45
2023-05-19T09:45:46.467Z,40.53
2023-05-19T09:46:46.532Z,40.52
2023-05-19T09:47:46.579Z,40.31
2023-05-19T09:48:46.564Z,40.31
2023-05-19T09:49:46.595Z,40.08
2023-05-19T09:50:46.601Z,40.08
2023-05-19T09:51:46.707Z,40.42
2023-05-19T09:52:46.698Z,39.69
2023-05-19T09:53:46.709Z,39.18
2023-05-19T09:54:46.718Z,38.77
2023-05-19T09:55:46.818Z,39.22
2023-05-19T09:56:46.830Z,39.64
2023-05-19T09:57:47.056Z,40.14
2023-05-19T09:58:46.863Z,39.78
2023-05-19T09:59:46.937Z,39.72
2023-05-19T10:00:46.966Z,39.49
2023-05-19T10:01:47.125Z,38.43
2023-05-19T10:02:47.499Z,38.54
2023-05-19T10:03:47.093Z,38.29
2023-05-19T10:04:47.087Z,37.82
2023-05-19T10:05:47.098Z,37.64
2023-05-19T10:06:47.110Z,37.66
2023-05-19T10:07:47.212Z,38.63
2023-05-19T10:08:47.207Z,38.24
2023-05-19T10:09:47.227Z,38.42
2023-05-19T10:10:47.238Z,38.09
2023-05-19T10:11:47.259Z,38.63
2023-05-19T10:12:47.341Z,38.47
2023-05-19T10:13:47.355Z,38.64
2023-05-19T10:14:47.349Z,39.09
2023-05-19T10:15:58.113Z,38.69
2023-05-19T10:16:47.403Z,38.83
2023-05-19T10:17:47.412Z,39.20
2023-05-19T10:18:47.425Z,39.32
2023-05-19T10:19:47.345Z,39.15
2023-05-19T10:20:47.326Z,38.55
2023-05-19T10:21:47.296Z,39.01
2023-05-19T10:22:47.326Z,38.52
2023-05-19T10:23:47.334Z,37.76
2023-05-19T10:24:47.340Z,37.85
2023-05-19T10:25:47.322Z,37.85
2023-05-19T10:26:47.341Z,37.79
2023-05-19T10:27:47.334Z,37.47
2023-05-19T10:28:47.355Z,37.59
2023-05-19T10:29:47.370Z,37.29
2023-05-19T10:30:47.401Z,37.19
2023-05-19T10:31:47.485Z,37.02
2023-05-19T10:32:47.588Z,38.07
2023-05-19T10:33:47.490Z,38.71
2023-05-19T10:34:47.512Z,38.61
2023-05-19T10:35:47.491Z,39.05
2023-05-19T10:36:47.601Z,38.44
2023-05-19T10:37:47.684Z,38.61
2023-05-19T10:38:47.670Z,39.05
2023-05-19T10:39:47.636Z,39.30
2023-05-19T10:40:47.668Z,38.51
2023-05-19T10:41:47.883Z,38.40
2023-05-19T10:42:47.724Z,38.05
2023-05-19T10:43:47.688Z,38.21
2023-05-19T10:44:47.664Z,38.13
2023-05-19T10:45:47.677Z,37.41
2023-05-19T10:46:47.725Z,37.21
2023-05-19T10:47:47.746Z,37.47
2023-05-19T10:48:47.719Z,37.11
2023-05-19T10:49:47.619Z,37.93
2023-05-19T10:50:47.637Z,38.46
2023-05-19T10:51:47.624Z,38.68
2023-05-19T10:52:47.724Z,38.79
2023-05-19T10:53:47.749Z,38.31
2023-05-19T10:54:47.726Z,37.97
2023-05-19T10:55:47.749Z,38.29
2023-05-19T10:56:47.773Z,38.81
2023-05-19T10:57:47.976Z,38.65
2023-05-19T10:58:47.885Z,39.05
2023-05-19T10:59:47.974Z,38.66
2023-05-19T11:00:47.999Z,38.36
2023-05-19T11:01:48.027Z,38.08
2023-05-19T11:02:48.139Z,37.60
2023-05-19T11:03:48.170Z,37.63
2023-05-19T11:04:50.270Z,37.58
2023-05-19T11:05:48.117Z,37.65
2023-05-19T11:06:48.126Z,37.55
2023-05-19T11:07:48.113Z,37.37
2023-05-19T11:08:48.047Z,36.98
2023-05-19T11:09:48.066Z,36.75
2023-05-19T11:10:48.177Z,36.61
2023-05-19T11:11:48.105Z,36.49
2023-05-19T11:12:48.079Z,36.99
2023-05-19T11:13:48.074Z,37.24
2023-05-19T11:14:48.088Z,37.03
2023-05-19T11:15:48.009Z,37.44
2023-05-19T11:16:48.082Z,36.62
2023-05-19T11:17:48.123Z,36.00
2023-05-19T11:18:48.041Z,36.10
2023-05-19T11:19:48.033Z,35.77
2023-05-19T11:20:48.054Z,35.53
2023-05-19T11:21:48.067Z,35.80
2023-05-19T11:22:48.033Z,35.58
2023-05-19T11:23:48.031Z,35.75
2023-05-19T11:24:47.961Z,36.43
2023-05-19T11:25:48.043Z,36.38
2023-05-19T11:26:47.978Z,35.95
2023-05-19T11:27:47.972Z,36.55
2023-05-19T11:28:47.981Z,36.62
2023-05-19T11:29:47.981Z,36.43
2023-05-19T11:30:47.893Z,36.70
2023-05-19T11:31:47.959Z,37.22
2023-05-19T11:32:48.055Z,37.13
2023-05-19T11:33:47.916Z,37.71
2023-05-19T11:34:48.003Z,37.23
2023-05-19T11:35:47.931Z,37.06
2023-05-19T11:36:47.932Z,36.71
2023-05-19T11:37:47.948Z,37.22
2023-05-19T11:38:47.846Z,37.20
2023-05-19T11:39:47.975Z,37.34
2023-05-19T11:40:47.833Z,36.82
2023-05-19T11:41:47.890Z,37.23
2023-05-19T11:42:47.900Z,37.73
2023-05-19T11:43:47.874Z,38.06
2023-05-19T11:44:47.914Z,38.06
2023-05-19T11:45:47.949Z,37.64
2023-05-19T11:46:48.095Z,37.72
2023-05-19T11:48:01.249Z,38.14
2023-05-19T11:48:48.835Z,38.92
2023-05-19T11:49:47.827Z,38.88
2023-05-19T11:50:47.831Z,39.10
2023-05-19T11:51:47.850Z,38.49
2023-05-19T11:52:47.845Z,38.50
2023-05-19T11:53:47.835Z,38.46
2023-05-19T11:54:47.754Z,38.59
2023-05-19T11:55:48.095Z,38.18
2023-05-19T11:56:47.771Z,37.67
2023-05-19T11:58:02.583Z,37.75
2023-05-19T11:58:48.816Z,38.88
2023-05-19T11:59:47.774Z,38.22
2023-05-19T12:00:48.182Z,37.81
2023-05-19T12:01:47.689Z,38.36
2023-05-19T12:02:47.816Z,38.03
2023-05-19T12:03:47.898Z,37.77
2023-05-19T12:04:47.712Z,37.41
2023-05-19T12:05:48.239Z,38.07
2023-05-19T12:06:47.770Z,38.80
2023-05-19T12:07:47.734Z,38.83
2023-05-19T12:08:47.726Z,38.85
2023-05-19T12:09:47.810Z,38.09
2023-05-19T12:10:47.853Z,37.96
2023-05-19T12:11:47.861Z,37.56
2023-05-19T12:12:47.886Z,36.99
2023-05-19T12:13:47.975Z,37.02
2023-05-19T12:14:47.974Z,36.91
2023-05-19T12:15:48.045Z,36.88
2023-05-19T12:16:48.176Z,36.89
2023-05-19T12:17:48.230Z,36.78
2023-05-19T12:18:48.228Z,36.04
2023-05-19T12:19:48.231Z,35.55
2023-05-19T12:20:48.249Z,35.67
2023-05-19T12:21:48.282Z,35.58
2023-05-19T12:22:48.351Z,35.37
2023-05-19T12:23:48.452Z,35.08
2023-05-19T12:24:48.457Z,34.86
2023-05-19T12:25:48.478Z,35.87
2023-05-19T12:26:48.485Z,35.51
2023-05-19T12:27:48.537Z,35.41
2023-05-19T12:28:48.502Z,34.96
2023-05-19T12:29:48.593Z,34.60
2023-05-19T12:30:48.601Z,34.56
2023-05-19T12:31:48.622Z,34.58
2023-05-19T12:32:48.669Z,34.52
2023-05-19T12:33:48.728Z,34.48
2023-05-19T12:34:48.682Z,34.41
2023-05-19T12:35:48.744Z,34.30
2023-05-19T12:36:48.801Z,34.21
2023-05-19T12:37:48.862Z,34.12
2023-05-19T12:38:48.863Z,33.66
2023-05-19T12:39:48.830Z,33.25
2023-05-19T12:40:48.917Z,33.27
2023-05-19T12:41:48.887Z,33.44
2023-05-19T12:42:48.965Z,33.56
2023-05-19T12:43:48.917Z,32.88
2023-05-19T12:44:49.025Z,32.58
2023-05-19T12:45:48.987Z,33.04
2023-05-19T12:46:49.129Z,33.43
2023-05-19T12:47:49.295Z,33.29
2023-05-19T12:48:49.152Z,33.51
2023-05-19T12:49:49.159Z,33.44
2023-05-19T12:50:49.261Z,33.58
2023-05-19T12:51:49.275Z,33.63
2023-05-19T12:52:49.367Z,33.65
2023-05-19T12:53:49.391Z,32.89